createdAt,value
2018-12-31T03:14:01.302Z,0.00
2018-12-31T03:15:09.895Z,0.00
2018-12-31T03:16:55.015Z,0.00
2018-12-31T03:18:04.096Z,0.00
2018-12-31T03:20:09.096Z,0.00
2018-12-31T03:21:08.026Z,0.00
2018-12-31T03:23:04.057Z,0.00
2018-12-31T03:24:03.774Z,0.00
2018-12-31T03:25:03.730Z,0.00
2018-12-31T03:26:04.095Z,0.00
2018-12-31T03:27:03.407Z,0.00
2018-12-31T03:28:03.921Z,0.00
2018-12-31T03:29:04.443Z,0.00
2018-12-31T03:30:03.926Z,0.00
2018-12-31T03:31:03.655Z,0.00
2018-12-31T03:32:03.699Z,0.00
2018-12-31T03:33:04.468Z,0.00
2018-12-31T03:34:03.984Z,0.00
2018-12-31T03:35:03.896Z,0.00
2018-12-31T03:36:03.114Z,0.00
2018-12-31T03:37:03.205Z,0.00
2018-12-31T03:38:03.846Z,0.00
2018-12-31T03:39:12.150Z,0.00
2018-12-31T03:41:09.376Z,0.00
2018-12-31T03:42:09.093Z,0.00
2018-12-31T03:43:08.674Z,0.00
2018-12-31T03:44:08.583Z,0.00
2018-12-31T03:45:08.891Z,0.00
2018-12-31T03:46:09.154Z,0.00
2018-12-31T03:47:08.522Z,0.00
2018-12-31T03:48:08.444Z,0.00
2018-12-31T03:49:08.444Z,0.00
2018-12-31T03:50:08.486Z,0.00
2018-12-31T03:51:08.448Z,0.00
2018-12-31T03:52:08.434Z,0.00
2018-12-31T03:53:08.410Z,0.00
2018-12-31T03:54:08.443Z,0.00
2018-12-31T03:55:08.428Z,0.00
2018-12-31T03:56:08.361Z,0.00
2018-12-31T03:57:08.352Z,0.00
2018-12-31T03:58:08.373Z,0.00
2018-12-31T03:59:08.378Z,0.00
2018-12-31T04:01:41.216Z,0.00
2018-12-31T04:02:41.089Z,0.00
2018-12-31T04:03:49.669Z,0.00
2018-12-31T04:05:45.348Z,0.00
2018-12-31T04:06:45.277Z,0.00
2018-12-31T04:07:53.890Z,0.00
2018-12-31T04:09:49.670Z,0.00
2018-12-31T04:10:58.706Z,0.00
2018-12-31T04:13:03.807Z,0.00
2018-12-31T04:13:55.612Z,0.00
2018-12-31T04:14:55.211Z,0.00
2018-12-31T04:15:54.879Z,0.00
2018-12-31T04:16:54.873Z,0.00
2018-12-31T04:17:54.874Z,0.00
2018-12-31T04:18:54.959Z,0.00
2018-12-31T04:19:54.880Z,0.00
2018-12-31T04:20:54.867Z,0.00
2018-12-31T04:21:54.876Z,0.00
2018-12-31T04:22:54.804Z,0.00
2018-12-31T04:23:54.928Z,0.00
2018-12-31T04:24:54.805Z,0.00
2018-12-31T04:25:54.833Z,0.00
2018-12-31T04:26:54.745Z,0.00
2018-12-31T04:27:54.747Z,0.00
2018-12-31T04:28:54.802Z,0.00
2018-12-31T04:29:54.717Z,0.00
2018-12-31T04:30:54.705Z,0.00
2018-12-31T04:31:54.701Z,0.00
2018-12-31T04:32:54.712Z,0.00
2018-12-31T04:33:54.793Z,0.00
2018-12-31T04:34:54.728Z,0.00
2018-12-31T04:35:54.718Z,0.00
2018-12-31T04:36:54.704Z,0.00
2018-12-31T04:37:54.649Z,0.00
2018-12-31T04:38:54.666Z,0.00
2018-12-31T04:39:54.660Z,0.00
2018-12-31T04:40:54.640Z,0.00
2018-12-31T04:41:54.623Z,0.00
2018-12-31T04:42:54.605Z,0.00
2018-12-31T04:43:54.639Z,0.00
2018-12-31T04:44:54.576Z,0.00
2018-12-31T04:45:54.593Z,0.00
2018-12-31T04:46:54.604Z,0.00
2018-12-31T04:47:54.618Z,0.00
2018-12-31T04:48:54.608Z,0.00
2018-12-31T04:49:54.599Z,0.00
2018-12-31T04:50:54.517Z,0.00
2018-12-31T04:51:54.513Z,0.00
2018-12-31T04:52:54.545Z,0.00
2018-12-31T04:53:54.522Z,0.00
2018-12-31T04:54:54.533Z,0.00
2018-12-31T04:55:54.496Z,0.00
2018-12-31T04:56:54.525Z,0.00
2018-12-31T04:57:54.461Z,0.00
2018-12-31T04:58:54.442Z,0.00
2018-12-31T04:59:54.432Z,0.00
2018-12-31T05:00:54.450Z,0.00
2018-12-31T05:01:54.488Z,0.00
2018-12-31T05:02:54.439Z,0.00
2018-12-31T05:03:54.465Z,0.00
2018-12-31T05:04:54.454Z,0.00
2018-12-31T05:05:54.437Z,0.00
2018-12-31T05:06:54.492Z,0.00
2018-12-31T05:07:54.416Z,0.00
2018-12-31T05:08:54.497Z,0.00
2018-12-31T05:09:54.359Z,0.00
2018-12-31T05:10:54.426Z,0.00
2018-12-31T05:11:54.376Z,0.00
2018-12-31T05:12:54.352Z,0.00
2018-12-31T05:13:54.337Z,0.00
2018-12-31T05:14:54.352Z,0.00
2018-12-31T05:15:54.305Z,0.00
2018-12-31T05:16:54.297Z,0.00
2018-12-31T05:17:54.283Z,0.00
2018-12-31T05:18:54.327Z,0.00
2018-12-31T05:19:54.290Z,0.00
2018-12-31T05:20:54.270Z,0.00
2018-12-31T05:21:54.293Z,0.00
2018-12-31T05:22:54.271Z,0.00
2018-12-31T05:23:54.290Z,0.00
2018-12-31T05:24:54.258Z,0.00
2018-12-31T05:25:54.200Z,0.00
2018-12-31T05:26:54.234Z,0.00
2018-12-31T05:27:54.228Z,0.00
2018-12-31T05:28:54.228Z,0.00
2018-12-31T05:29:54.259Z,0.00
2018-12-31T05:30:54.189Z,0.00
2018-12-31T05:31:54.163Z,0.00
2018-12-31T05:32:54.181Z,0.00
2018-12-31T05:33:54.193Z,0.00
2018-12-31T05:34:54.178Z,0.00
2018-12-31T05:35:54.105Z,0.00
2018-12-31T05:36:54.172Z,0.00
2018-12-31T05:37:54.148Z,0.00
2018-12-31T05:38:54.160Z,0.00
2018-12-31T05:39:54.117Z,0.00
2018-12-31T05:40:54.061Z,0.00
2018-12-31T05:41:54.069Z,0.00
2018-12-31T05:42:54.072Z,0.00
2018-12-31T05:43:54.074Z,0.00
2018-12-31T05:44:54.097Z,0.00
2018-12-31T05:45:54.069Z,0.00
2018-12-31T05:46:54.075Z,0.00
2018-12-31T05:47:53.993Z,0.00
2018-12-31T05:48:54.000Z,0.00
2018-12-31T05:49:53.975Z,0.00
2018-12-31T05:50:54.010Z,0.00
2018-12-31T05:51:54.011Z,0.00
2018-12-31T05:52:53.999Z,0.00
2018-12-31T05:53:54.014Z,0.00
2018-12-31T05:54:54.027Z,0.00
2018-12-31T05:55:53.969Z,0.00
2018-12-31T05:57:03.932Z,0.00
2018-12-31T05:58:59.436Z,0.00
2018-12-31T05:59:58.870Z,0.00
2018-12-31T06:00:58.991Z,0.00
2018-12-31T06:01:59.023Z,0.00
2018-12-31T06:02:58.692Z,0.00
2018-12-31T06:03:58.386Z,0.00
2018-12-31T06:05:08.382Z,0.00
2018-12-31T06:06:53.452Z,0.00
2018-12-31T06:09:57.980Z,0.00
2018-12-31T06:10:57.849Z,0.00
2018-12-31T06:13:02.287Z,0.00
2018-12-31T06:14:02.353Z,0.00
2018-12-31T06:17:32.720Z,0.00
2018-12-31T06:18:41.461Z,0.00
2018-12-31T06:20:27.194Z,0.00
2018-12-31T06:21:27.188Z,0.00
2018-12-31T06:22:27.180Z,0.00
2018-12-31T06:23:27.085Z,0.00
2018-12-31T06:26:06.322Z,0.00
2018-12-31T06:27:14.974Z,0.00
2018-12-31T06:29:18.698Z,0.00
2018-12-31T06:30:10.855Z,0.00
2018-12-31T06:31:10.695Z,0.00
2018-12-31T06:32:10.575Z,0.00
2018-12-31T06:33:10.350Z,0.00
2018-12-31T06:34:10.362Z,0.00
2018-12-31T06:35:10.289Z,0.00
2018-12-31T06:36:10.278Z,0.00
2018-12-31T06:37:10.326Z,0.00
2018-12-31T06:38:10.533Z,0.00
2018-12-31T06:39:10.298Z,0.00
2018-12-31T06:40:10.398Z,0.00
2018-12-31T06:41:10.228Z,0.00
2018-12-31T06:42:10.225Z,0.00
2018-12-31T06:43:10.293Z,0.00
2018-12-31T06:44:10.219Z,0.00
2018-12-31T06:45:10.231Z,0.00
2018-12-31T06:46:10.241Z,0.00
2018-12-31T06:47:10.250Z,0.00
2018-12-31T06:48:10.164Z,0.00
2018-12-31T06:49:10.181Z,0.00
2018-12-31T06:50:10.172Z,0.00
2018-12-31T06:51:10.222Z,0.00
2018-12-31T06:52:10.153Z,0.00
2018-12-31T06:53:10.181Z,0.00
2018-12-31T06:54:10.160Z,0.00
2018-12-31T06:55:10.180Z,0.00
2018-12-31T06:56:10.163Z,0.00
2018-12-31T06:57:10.086Z,0.00
2018-12-31T06:58:10.125Z,0.00
2018-12-31T06:59:10.106Z,0.00
2018-12-31T07:00:10.123Z,0.00
2018-12-31T07:01:10.056Z,0.00
2018-12-31T07:02:10.088Z,0.00
2018-12-31T07:03:10.091Z,0.00
2018-12-31T07:04:10.008Z,0.00
2018-12-31T07:05:10.036Z,0.00
2018-12-31T07:06:10.057Z,0.00
2018-12-31T07:07:10.020Z,0.00
2018-12-31T07:08:10.057Z,0.00
2018-12-31T07:09:10.079Z,0.00
2018-12-31T07:10:10.079Z,4.00
2018-12-31T07:11:10.006Z,4.00
2018-12-31T07:12:10.032Z,4.00
2018-12-31T07:13:19.139Z,0.00
2018-12-31T07:15:14.776Z,4.00
2018-12-31T07:16:14.746Z,4.00
2018-12-31T07:17:14.553Z,4.00
2018-12-31T07:18:14.669Z,4.00
2018-12-31T07:19:14.458Z,4.00
2018-12-31T07:20:14.387Z,4.00
2018-12-31T07:21:14.442Z,4.00
2018-12-31T07:22:14.360Z,4.00
2018-12-31T07:23:14.343Z,8.00
2018-12-31T07:24:14.336Z,8.00
2018-12-31T07:25:14.350Z,4.00
2018-12-31T07:26:14.319Z,4.00
2018-12-31T07:27:14.351Z,4.00
2018-12-31T07:28:14.337Z,8.00
2018-12-31T07:29:14.340Z,8.00
2018-12-31T07:30:14.305Z,4.00
2018-12-31T07:31:14.339Z,8.00
2018-12-31T07:32:14.292Z,8.00
2018-12-31T07:33:14.248Z,8.00
2018-12-31T07:34:14.330Z,12.00
2018-12-31T07:37:05.462Z,20.00
2018-12-31T07:38:05.478Z,20.00
2018-12-31T07:39:05.242Z,24.00
2018-12-31T07:40:04.922Z,24.00
2018-12-31T07:41:04.923Z,28.00
2018-12-31T07:42:04.917Z,32.00
2018-12-31T07:43:04.952Z,32.00
2018-12-31T07:44:14.423Z,32.00
2018-12-31T07:46:09.891Z,32.00
2018-12-31T07:47:10.144Z,32.00
2018-12-31T07:48:09.521Z,32.00
2018-12-31T07:49:09.361Z,32.00
2018-12-31T07:50:09.362Z,36.00
2018-12-31T07:53:25.915Z,32.00
2018-12-31T07:54:25.404Z,28.00
2018-12-31T07:55:25.127Z,28.00
2018-12-31T07:56:25.535Z,20.00
2018-12-31T07:57:25.057Z,24.00
2018-12-31T07:58:25.070Z,24.00
2018-12-31T07:59:25.189Z,28.00
2018-12-31T08:00:25.069Z,28.00
2018-12-31T08:01:25.044Z,28.00
2018-12-31T08:02:25.004Z,36.00
2018-12-31T08:03:24.990Z,40.00
2018-12-31T08:04:24.983Z,40.00
2018-12-31T08:05:24.965Z,56.00
2018-12-31T08:06:24.965Z,60.00
2018-12-31T08:07:24.979Z,60.00
2018-12-31T08:08:24.955Z,68.00
2018-12-31T08:09:24.944Z,68.00
2018-12-31T08:10:24.993Z,72.00
2018-12-31T08:11:24.966Z,68.00
2018-12-31T08:12:24.914Z,80.00
2018-12-31T08:13:24.964Z,76.00
2018-12-31T08:14:24.896Z,80.00
2018-12-31T08:15:24.879Z,80.00
2018-12-31T08:16:24.906Z,88.00
2018-12-31T08:17:24.913Z,84.00
2018-12-31T08:18:24.854Z,80.00
2018-12-31T08:19:24.922Z,76.00
2018-12-31T08:20:24.876Z,88.00
2018-12-31T08:21:24.861Z,100.00
2018-12-31T08:22:24.936Z,104.00
2018-12-31T08:23:24.878Z,116.00
2018-12-31T08:24:24.859Z,124.00
2018-12-31T08:25:24.863Z,132.00
2018-12-31T08:26:24.805Z,140.00
2018-12-31T08:27:24.789Z,136.00
2018-12-31T08:28:24.785Z,136.00
2018-12-31T08:29:24.833Z,116.00
2018-12-31T08:30:24.742Z,116.00
2018-12-31T08:31:24.801Z,128.00
2018-12-31T08:32:24.786Z,128.00
2018-12-31T08:33:24.715Z,136.00
2018-12-31T08:34:24.750Z,152.00
2018-12-31T08:35:24.823Z,168.00
2018-12-31T08:36:24.697Z,164.00
2018-12-31T08:37:24.713Z,152.00
2018-12-31T08:38:24.793Z,152.00
2018-12-31T08:39:24.705Z,168.00
2018-12-31T08:40:24.700Z,176.00
2018-12-31T08:41:24.657Z,196.00
2018-12-31T08:42:26.311Z,200.00
2018-12-31T08:43:24.737Z,216.00
2018-12-31T08:44:24.672Z,204.00
2018-12-31T08:45:32.763Z,216.00
2018-12-31T08:47:19.679Z,204.00
2018-12-31T08:48:19.129Z,212.00
2018-12-31T08:50:24.554Z,240.00
2018-12-31T08:51:23.755Z,260.00
2018-12-31T08:52:23.717Z,280.00
2018-12-31T08:53:23.235Z,316.00
2018-12-31T08:54:23.422Z,352.00
2018-12-31T08:55:23.223Z,340.00
2018-12-31T08:56:23.214Z,348.00
2018-12-31T08:57:23.258Z,340.00
2018-12-31T08:58:32.031Z,360.00
2018-12-31T09:00:27.720Z,340.00
2018-12-31T09:01:27.634Z,320.00
2018-12-31T09:02:27.631Z,328.00
2018-12-31T09:03:36.312Z,308.00
2018-12-31T09:05:32.124Z,328.00
2018-12-31T09:06:40.765Z,348.00
2018-12-31T09:07:40.981Z,368.00
2018-12-31T09:09:37.623Z,372.00
2018-12-31T09:10:37.540Z,372.00
2018-12-31T09:11:37.565Z,376.00
2018-12-31T09:12:37.708Z,376.00
2018-12-31T09:13:37.551Z,404.00
2018-12-31T09:14:37.514Z,404.00
2018-12-31T09:15:37.500Z,388.00
2018-12-31T09:16:37.489Z,348.00
2018-12-31T09:17:37.478Z,340.00
2018-12-31T09:18:37.499Z,312.00
2018-12-31T09:19:37.507Z,304.00
2018-12-31T09:20:37.511Z,280.00
2018-12-31T09:21:37.464Z,264.00
2018-12-31T09:22:37.437Z,256.00
2018-12-31T09:23:37.429Z,256.00
2018-12-31T09:24:44.484Z,260.00
2018-12-31T09:25:37.414Z,252.00
2018-12-31T09:26:37.415Z,228.00
2018-12-31T09:27:37.456Z,220.00
2018-12-31T09:28:37.449Z,236.00
2018-12-31T09:29:46.873Z,236.00
2018-12-31T09:31:42.096Z,220.00
2018-12-31T09:32:41.892Z,224.00
2018-12-31T09:34:46.551Z,232.00
2018-12-31T09:35:46.488Z,248.00
2018-12-31T09:36:46.321Z,240.00
2018-12-31T09:37:46.379Z,228.00
2018-12-31T09:38:46.623Z,220.00
2018-12-31T09:39:46.290Z,216.00
2018-12-31T09:40:46.297Z,204.00
2018-12-31T09:41:46.376Z,188.00
2018-12-31T09:42:46.301Z,184.00
2018-12-31T09:43:46.258Z,180.00
2018-12-31T09:44:46.384Z,176.00
2018-12-31T09:45:46.238Z,160.00
2018-12-31T09:46:46.256Z,152.00
2018-12-31T09:47:46.273Z,148.00
2018-12-31T09:48:46.245Z,156.00
2018-12-31T09:49:46.228Z,188.00
2018-12-31T09:50:46.196Z,200.00
2018-12-31T09:51:46.207Z,212.00
2018-12-31T09:52:46.280Z,216.00
2018-12-31T09:53:46.209Z,204.00
2018-12-31T09:54:46.180Z,180.00
2018-12-31T09:55:46.150Z,172.00
2018-12-31T09:56:46.200Z,176.00
2018-12-31T09:57:46.152Z,196.00
2018-12-31T09:58:46.152Z,216.00
2018-12-31T09:59:46.208Z,212.00
2018-12-31T10:00:46.136Z,216.00
2018-12-31T10:01:46.192Z,240.00
2018-12-31T10:02:46.095Z,248.00
2018-12-31T10:03:47.614Z,264.00
2018-12-31T10:04:46.149Z,264.00
2018-12-31T10:05:46.127Z,260.00
2018-12-31T10:06:46.085Z,252.00
2018-12-31T10:07:46.065Z,236.00
2018-12-31T10:08:49.343Z,220.00
2018-12-31T10:09:46.032Z,212.00
2018-12-31T10:10:55.152Z,212.00
2018-12-31T10:12:51.832Z,216.00
2018-12-31T10:13:51.528Z,232.00
2018-12-31T10:14:51.669Z,236.00
2018-12-31T10:15:51.879Z,224.00
2018-12-31T10:16:51.346Z,224.00
2018-12-31T10:17:51.463Z,228.00
2018-12-31T10:18:51.930Z,232.00
2018-12-31T10:19:51.332Z,244.00
2018-12-31T10:20:51.324Z,244.00
2018-12-31T10:21:51.302Z,244.00
2018-12-31T10:22:51.696Z,252.00
2018-12-31T10:23:52.985Z,248.00
2018-12-31T10:24:51.259Z,244.00
2018-12-31T10:25:51.357Z,252.00
2018-12-31T10:26:51.568Z,252.00
2018-12-31T10:27:51.229Z,268.00
2018-12-31T10:28:51.289Z,276.00
2018-12-31T10:29:51.293Z,288.00
2018-12-31T10:30:51.349Z,276.00
2018-12-31T10:31:51.265Z,264.00
2018-12-31T10:33:01.033Z,248.00
2018-12-31T10:34:57.266Z,244.00
2018-12-31T10:35:56.789Z,240.00
2018-12-31T10:36:56.815Z,252.00
2018-12-31T10:37:56.752Z,248.00
2018-12-31T10:38:56.695Z,256.00
2018-12-31T10:39:56.730Z,256.00
2018-12-31T10:40:56.725Z,292.00
2018-12-31T10:41:56.675Z,292.00
2018-12-31T10:42:56.703Z,328.00
2018-12-31T10:43:56.676Z,352.00
2018-12-31T10:44:56.635Z,376.00
2018-12-31T10:45:56.653Z,372.00
2018-12-31T10:46:56.714Z,384.00
2018-12-31T10:47:56.662Z,416.00
2018-12-31T10:48:56.643Z,432.00
2018-12-31T10:49:56.833Z,464.00
2018-12-31T10:52:30.165Z,516.00
2018-12-31T10:53:29.727Z,500.00
2018-12-31T10:54:29.967Z,504.00
2018-12-31T10:55:29.656Z,492.00
2018-12-31T10:56:29.630Z,484.00
2018-12-31T10:57:29.709Z,468.00
2018-12-31T10:58:29.626Z,488.00
2018-12-31T10:59:29.638Z,484.00
2018-12-31T11:00:29.688Z,500.00
2018-12-31T11:01:29.608Z,520.00
2018-12-31T11:02:29.637Z,548.00
2018-12-31T11:03:29.578Z,560.00
2018-12-31T11:04:29.569Z,544.00
2018-12-31T11:05:29.627Z,524.00
2018-12-31T11:06:29.575Z,544.00
2018-12-31T11:07:29.572Z,512.00
2018-12-31T11:08:29.546Z,464.00
2018-12-31T11:09:29.556Z,480.00
2018-12-31T11:10:38.360Z,516.00
2018-12-31T11:12:34.733Z,392.00
2018-12-31T11:13:34.043Z,320.00
2018-12-31T11:14:33.991Z,308.00
2018-12-31T11:15:33.996Z,304.00
2018-12-31T11:16:34.009Z,304.00
2018-12-31T11:17:34.145Z,296.00
2018-12-31T11:18:33.957Z,308.00
2018-12-31T11:19:33.932Z,316.00
2018-12-31T11:20:33.925Z,280.00
2018-12-31T11:21:33.969Z,240.00
2018-12-31T11:22:33.917Z,260.00
2018-12-31T11:23:33.905Z,264.00
2018-12-31T11:24:33.899Z,288.00
2018-12-31T11:25:33.970Z,292.00
2018-12-31T11:26:33.938Z,304.00
2018-12-31T11:27:33.884Z,300.00
2018-12-31T11:28:33.879Z,316.00
2018-12-31T11:29:33.896Z,328.00
2018-12-31T11:30:33.870Z,324.00
2018-12-31T11:31:33.927Z,304.00
2018-12-31T11:32:33.879Z,288.00
2018-12-31T11:33:34.011Z,316.00
2018-12-31T11:34:33.897Z,340.00
2018-12-31T11:35:33.825Z,352.00
2018-12-31T11:36:33.829Z,368.00
2018-12-31T11:37:34.862Z,376.00
2018-12-31T11:38:33.950Z,396.00
2018-12-31T11:39:33.795Z,448.00
2018-12-31T11:40:33.798Z,508.00
2018-12-31T11:41:33.777Z,560.00
2018-12-31T11:42:33.800Z,684.00
2018-12-31T11:43:33.775Z,808.00
2018-12-31T11:44:33.750Z,864.00
2018-12-31T11:45:33.753Z,960.00
2018-12-31T11:46:33.751Z,1084.00
2018-12-31T11:47:33.765Z,1116.00
2018-12-31T11:48:33.734Z,1120.00
2018-12-31T11:49:33.697Z,1076.00
2018-12-31T11:50:33.685Z,1232.00
2018-12-31T11:51:33.755Z,1028.00
2018-12-31T11:52:33.670Z,904.00
2018-12-31T11:53:42.345Z,824.00
2018-12-31T11:55:38.165Z,640.00
2018-12-31T11:56:38.116Z,640.00
2018-12-31T11:57:38.127Z,604.00
2018-12-31T11:58:47.107Z,556.00
2018-12-31T12:00:42.620Z,516.00
2018-12-31T12:01:42.556Z,492.00
2018-12-31T12:02:42.554Z,472.00
2018-12-31T12:03:42.567Z,416.00
2018-12-31T12:04:42.534Z,368.00
2018-12-31T12:05:42.537Z,344.00
2018-12-31T12:06:42.601Z,320.00
2018-12-31T12:07:42.553Z,304.00
2018-12-31T12:08:42.528Z,300.00
2018-12-31T12:09:42.613Z,292.00
2018-12-31T12:10:42.492Z,280.00
2018-12-31T12:11:42.483Z,276.00
2018-12-31T12:12:42.476Z,272.00
2018-12-31T12:13:42.497Z,276.00
2018-12-31T12:14:42.495Z,272.00
2018-12-31T12:15:42.448Z,284.00
2018-12-31T12:16:42.446Z,308.00
2018-12-31T12:17:42.437Z,312.00
2018-12-31T12:18:42.464Z,328.00
2018-12-31T12:19:42.445Z,368.00
2018-12-31T12:20:42.413Z,416.00
2018-12-31T12:21:42.403Z,432.00
2018-12-31T12:22:42.412Z,440.00
2018-12-31T12:23:42.389Z,436.00
2018-12-31T12:24:42.427Z,456.00
2018-12-31T12:25:42.376Z,516.00
2018-12-31T12:26:42.385Z,544.00
2018-12-31T12:27:42.361Z,532.00
2018-12-31T12:28:42.352Z,496.00
2018-12-31T12:29:42.345Z,516.00
2018-12-31T12:30:42.349Z,564.00
2018-12-31T12:31:42.328Z,652.00
2018-12-31T12:32:42.320Z,740.00
2018-12-31T12:33:42.308Z,752.00
2018-12-31T12:34:42.311Z,708.00
2018-12-31T12:35:42.301Z,628.00
2018-12-31T12:36:42.299Z,576.00
2018-12-31T12:37:48.489Z,548.00
2018-12-31T12:38:42.267Z,504.00
2018-12-31T12:39:42.261Z,468.00
2018-12-31T12:40:42.252Z,460.00
2018-12-31T12:41:42.255Z,468.00
2018-12-31T12:42:42.242Z,468.00
2018-12-31T12:43:42.264Z,504.00
2018-12-31T12:44:42.236Z,540.00
2018-12-31T12:45:42.219Z,548.00
2018-12-31T12:46:42.212Z,548.00
2018-12-31T12:47:42.207Z,524.00
2018-12-31T12:48:42.197Z,496.00
2018-12-31T12:49:42.190Z,444.00
2018-12-31T12:50:42.183Z,400.00
2018-12-31T12:51:42.172Z,384.00
2018-12-31T12:52:42.185Z,376.00
2018-12-31T12:53:42.183Z,376.00
2018-12-31T12:54:42.173Z,364.00
2018-12-31T12:55:42.145Z,348.00
2018-12-31T12:56:42.131Z,328.00
2018-12-31T12:57:42.145Z,336.00
2018-12-31T12:58:42.129Z,344.00
2018-12-31T12:59:42.118Z,324.00
2018-12-31T13:00:42.103Z,312.00
2018-12-31T13:01:42.105Z,312.00
2018-12-31T13:02:42.105Z,320.00
2018-12-31T13:03:42.094Z,348.00
2018-12-31T13:04:42.086Z,344.00
2018-12-31T13:05:42.095Z,348.00
2018-12-31T13:06:42.066Z,352.00
2018-12-31T13:07:42.111Z,344.00
2018-12-31T13:08:42.053Z,340.00
2018-12-31T13:09:42.037Z,320.00
2018-12-31T13:10:42.036Z,320.00
2018-12-31T13:11:42.046Z,312.00
2018-12-31T13:12:42.028Z,308.00
2018-12-31T13:13:42.016Z,296.00
2018-12-31T13:14:42.062Z,268.00
2018-12-31T13:15:41.994Z,240.00
2018-12-31T13:16:42.012Z,224.00
2018-12-31T13:17:42.000Z,216.00
2018-12-31T13:18:41.983Z,212.00
2018-12-31T13:19:41.962Z,204.00
2018-12-31T13:20:41.987Z,200.00
2018-12-31T13:21:41.952Z,196.00
2018-12-31T13:22:41.965Z,196.00
2018-12-31T13:23:41.931Z,212.00
2018-12-31T13:24:41.927Z,232.00
2018-12-31T13:25:41.911Z,260.00
2018-12-31T13:26:43.761Z,300.00
2018-12-31T13:27:41.917Z,336.00
2018-12-31T13:28:51.635Z,388.00
2018-12-31T13:30:46.781Z,472.00
2018-12-31T13:33:25.586Z,552.00
2018-12-31T13:34:34.213Z,544.00
2018-12-31T13:36:19.182Z,548.00
2018-12-31T13:37:19.165Z,512.00
2018-12-31T13:38:19.224Z,504.00
2018-12-31T13:39:19.127Z,504.00
2018-12-31T13:40:19.123Z,500.00
2018-12-31T13:41:19.118Z,524.00
2018-12-31T13:42:20.434Z,532.00
2018-12-31T13:43:19.129Z,532.00
2018-12-31T13:44:19.096Z,524.00
2018-12-31T13:45:19.095Z,516.00
2018-12-31T13:46:19.094Z,496.00
2018-12-31T13:47:19.070Z,500.00
2018-12-31T13:48:19.065Z,516.00
2018-12-31T13:49:19.064Z,552.00
2018-12-31T13:50:19.048Z,592.00
2018-12-31T13:51:19.050Z,620.00
2018-12-31T13:52:19.053Z,596.00
2018-12-31T13:53:19.054Z,592.00
2018-12-31T13:54:19.023Z,512.00
2018-12-31T13:55:19.042Z,424.00
2018-12-31T13:56:19.008Z,348.00
2018-12-31T13:57:19.014Z,312.00
2018-12-31T13:58:18.991Z,312.00
2018-12-31T13:59:18.990Z,316.00
2018-12-31T14:00:18.983Z,324.00
2018-12-31T14:01:18.980Z,328.00
2018-12-31T14:02:19.001Z,332.00
2018-12-31T14:03:19.771Z,336.00
2018-12-31T14:04:18.952Z,340.00
2018-12-31T14:05:18.938Z,340.00
2018-12-31T14:06:18.941Z,332.00
2018-12-31T14:07:18.934Z,324.00
2018-12-31T14:08:18.928Z,320.00
2018-12-31T14:09:18.910Z,316.00
2018-12-31T14:10:18.918Z,308.00
2018-12-31T14:11:18.894Z,292.00
2018-12-31T14:12:18.901Z,272.00
2018-12-31T14:13:18.904Z,260.00
2018-12-31T14:14:18.879Z,240.00
2018-12-31T14:15:18.880Z,240.00
2018-12-31T14:16:18.859Z,248.00
2018-12-31T14:17:18.860Z,260.00
2018-12-31T14:18:18.847Z,260.00
2018-12-31T14:19:18.845Z,252.00
2018-12-31T14:20:18.855Z,252.00
2018-12-31T14:21:18.831Z,240.00
2018-12-31T14:22:18.825Z,236.00
2018-12-31T14:23:18.835Z,228.00
2018-12-31T14:24:18.800Z,224.00
2018-12-31T14:25:18.790Z,224.00
2018-12-31T14:26:18.788Z,216.00
2018-12-31T14:27:18.777Z,212.00
2018-12-31T14:28:18.771Z,200.00
2018-12-31T14:29:18.770Z,196.00
2018-12-31T14:30:18.778Z,184.00
2018-12-31T14:31:18.751Z,180.00
2018-12-31T14:32:18.744Z,172.00
2018-12-31T14:33:18.731Z,160.00
2018-12-31T14:34:18.748Z,152.00
2018-12-31T14:35:18.715Z,148.00
2018-12-31T14:36:18.875Z,148.00
2018-12-31T14:37:18.757Z,148.00
2018-12-31T14:38:18.716Z,148.00
2018-12-31T14:39:18.692Z,144.00
2018-12-31T14:40:18.685Z,148.00
2018-12-31T14:41:18.696Z,148.00
2018-12-31T14:42:18.700Z,148.00
2018-12-31T14:43:18.659Z,148.00
2018-12-31T14:44:18.711Z,140.00
2018-12-31T14:45:18.684Z,140.00
2018-12-31T14:46:18.636Z,144.00
2018-12-31T14:47:18.713Z,140.00
2018-12-31T14:48:18.617Z,144.00
2018-12-31T14:49:18.611Z,144.00
2018-12-31T14:50:18.608Z,140.00
2018-12-31T14:51:18.628Z,136.00
2018-12-31T14:52:18.593Z,136.00
2018-12-31T14:53:18.583Z,128.00
2018-12-31T14:54:19.446Z,124.00
2018-12-31T14:55:18.598Z,116.00
2018-12-31T14:56:18.572Z,108.00
2018-12-31T14:57:18.568Z,104.00
2018-12-31T14:58:18.544Z,100.00
2018-12-31T14:59:18.538Z,96.00
2018-12-31T15:00:18.534Z,96.00
2018-12-31T15:01:18.532Z,92.00
2018-12-31T15:02:18.518Z,88.00
2018-12-31T15:03:18.520Z,88.00
2018-12-31T15:04:18.536Z,84.00
2018-12-31T15:05:18.514Z,76.00
2018-12-31T15:06:18.661Z,72.00
2018-12-31T15:07:18.518Z,52.00
2018-12-31T15:08:18.788Z,48.00
2018-12-31T15:09:18.506Z,44.00
2018-12-31T15:10:18.479Z,44.00
2018-12-31T15:11:18.498Z,40.00
2018-12-31T15:12:18.494Z,44.00
2018-12-31T15:13:18.589Z,40.00
2018-12-31T15:14:18.517Z,40.00
2018-12-31T15:15:18.474Z,40.00
2018-12-31T15:16:18.479Z,40.00
2018-12-31T15:17:18.432Z,36.00
2018-12-31T15:18:18.459Z,36.00
2018-12-31T15:19:18.599Z,32.00
2018-12-31T15:20:18.544Z,32.00
2018-12-31T15:21:18.688Z,32.00
2018-12-31T15:22:18.399Z,28.00
2018-12-31T15:23:18.433Z,28.00
2018-12-31T15:24:18.442Z,24.00
2018-12-31T15:25:18.350Z,24.00
2018-12-31T15:26:18.345Z,20.00
2018-12-31T15:27:18.341Z,20.00
2018-12-31T15:28:18.354Z,16.00
2018-12-31T15:29:18.398Z,16.00
2018-12-31T15:30:18.350Z,16.00
2018-12-31T15:31:18.345Z,16.00
2018-12-31T15:32:18.318Z,16.00
2018-12-31T15:33:18.305Z,12.00
2018-12-31T15:34:18.333Z,12.00
2018-12-31T15:35:18.300Z,12.00
2018-12-31T15:36:18.345Z,12.00
2018-12-31T15:37:18.289Z,12.00
2018-12-31T15:38:18.308Z,12.00
2018-12-31T15:39:18.274Z,8.00
2018-12-31T15:40:18.253Z,8.00
2018-12-31T15:41:18.231Z,8.00
2018-12-31T15:42:18.226Z,8.00
2018-12-31T15:43:18.220Z,8.00
2018-12-31T15:44:18.284Z,8.00
2018-12-31T15:45:18.204Z,8.00
2018-12-31T15:46:20.339Z,8.00
2018-12-31T15:47:18.185Z,4.00
2018-12-31T15:48:18.247Z,4.00
2018-12-31T15:49:18.209Z,4.00
2018-12-31T15:50:18.173Z,0.00
2018-12-31T15:51:18.159Z,4.00
2018-12-31T15:52:18.151Z,4.00
2018-12-31T15:53:18.148Z,0.00
2018-12-31T15:54:18.137Z,0.00
2018-12-31T15:55:18.162Z,4.00
2018-12-31T15:56:18.145Z,4.00
2018-12-31T15:57:18.161Z,0.00
2018-12-31T15:58:18.126Z,0.00
2018-12-31T15:59:18.112Z,0.00
2018-12-31T16:00:18.184Z,4.00
2018-12-31T16:01:18.085Z,0.00
2018-12-31T16:02:18.138Z,0.00
2018-12-31T16:03:18.084Z,0.00
2018-12-31T16:04:18.139Z,0.00
2018-12-31T16:05:18.078Z,0.00
2018-12-31T16:06:18.150Z,0.00
2018-12-31T16:07:18.074Z,0.00
2018-12-31T16:08:18.062Z,0.00
2018-12-31T16:09:18.149Z,0.00
2018-12-31T16:10:18.053Z,0.00
2018-12-31T16:11:18.043Z,0.00
2018-12-31T16:12:18.012Z,0.00
2018-12-31T16:13:18.001Z,0.00
2018-12-31T16:14:18.102Z,0.00
2018-12-31T16:15:18.039Z,0.00
2018-12-31T16:16:18.075Z,0.00
2018-12-31T16:17:18.022Z,0.00
2018-12-31T16:18:17.989Z,0.00
2018-12-31T16:19:17.992Z,0.00
2018-12-31T16:20:17.987Z,0.00
2018-12-31T16:21:17.949Z,0.00
2018-12-31T16:22:17.924Z,0.00
2018-12-31T16:23:17.940Z,0.00
2018-12-31T16:24:17.924Z,0.00
2018-12-31T16:25:17.905Z,0.00
2018-12-31T16:26:17.905Z,0.00
2018-12-31T16:27:17.889Z,0.00
2018-12-31T16:28:17.884Z,0.00
2018-12-31T16:29:17.892Z,0.00
2018-12-31T16:30:17.870Z,0.00
2018-12-31T16:31:17.869Z,0.00
2018-12-31T16:32:17.872Z,0.00
2018-12-31T16:33:19.491Z,0.00
2018-12-31T16:34:17.851Z,0.00
2018-12-31T16:35:17.834Z,0.00
2018-12-31T16:36:17.837Z,0.00
2018-12-31T16:37:17.824Z,0.00
2018-12-31T16:38:17.827Z,0.00
2018-12-31T16:39:17.815Z,0.00
2018-12-31T16:40:17.815Z,0.00
2018-12-31T16:41:17.815Z,0.00
2018-12-31T16:42:17.788Z,0.00
2018-12-31T16:43:17.777Z,0.00
2018-12-31T16:44:17.789Z,0.00
2018-12-31T16:45:17.761Z,0.00
2018-12-31T16:46:17.786Z,0.00
2018-12-31T16:47:17.746Z,0.00
2018-12-31T16:48:17.774Z,0.00